Rp Zug — HE7351 — position and weather

sailwx.info

Track history (hours):
 
Tides and Currents Weather Stations Pressure Air Temp Water Temp Dewpoint Dewpoint Depression Visibility Wind Speed Wind Dir Waves Ship Positions

Rp Zug

Last reported at 2015-Sep-01 11:19 UTC. Time now 2015-Sep-01 12:16 UTC.
Position N 51°51' E 006°05'.

Length 110 m; draft 2 m.

Type: Tanker. MMSI: 269057351.

Date/timePositionNaut miles runAvg speedWind from/ knotsBaromVisibWave heightAir tempDewpointWater temp
2015-Sep-01 11:19N 51°51' E 006°05'3 1.5
2015-Sep-01 09:05N 51°53' E 006°01'8 5.1
2015-Sep-01 07:33N 51°53' E 005°48'7 6.8
2015-Sep-01 06:32N 51°54' E 005°37'6 6.1
2015-Sep-01 05:33N 51°54' E 005°27'6 6.4
2015-Sep-01 04:33N 51°58' E 005°19'7 7.1
2015-Sep-01 03:34N 52°01' E 005°09'9 8.8
2015-Sep-01 02:33N 52°09' E 005°01'9 8.7
2015-Sep-01 01:33N 52°17' E 005°01'7 6.9
2015-Sep-01 00:34N 52°23' E 004°55'3 2.8
2015-Aug-31 23:33N 52°25' E 004°51'0 0.0
2015-Aug-31 22:33N 52°25' E 004°51'0 0.0
2015-Aug-31 21:33N 52°25' E 004°51'0 0.0
2015-Aug-31 20:33N 52°25' E 004°51'0 0.0
2015-Aug-31 19:33N 52°25' E 004°51'0 0.0
2015-Aug-31 18:33N 52°25' E 004°51'0 0.0
2015-Aug-31 17:33N 52°25' E 004°51'0 0.0
2015-Aug-31 16:33N 52°25' E 004°51'0 0.0
2015-Aug-31 15:33N 52°25' E 004°51'0 0.0
2015-Aug-31 14:33N 52°25' E 004°51'0 0.0
2015-Aug-31 13:33N 52°25' E 004°51'0 0.0
2015-Aug-31 12:33N 52°25' E 004°51'0 0.0
2015-Aug-31 11:33N 52°25' E 004°51'1 1.3
2015-Aug-31 10:33N 52°25' E 004°50'3 2.8
2015-Aug-31 09:33N 52°25' E 004°45'0 0.0
2015-Aug-31 08:33N 52°25' E 004°45'0 0.0
2015-Aug-31 07:33N 52°25' E 004°45'1 1.3
2015-Aug-31 06:33N 52°26' E 004°47'3 2.7
2015-Aug-31 05:33N 52°25' E 004°51'0 0.0
2015-Aug-31 04:33N 52°25' E 004°51'0 0.0
2015-Aug-31 03:33N 52°25' E 004°51'0 0.0
2015-Aug-31 02:33N 52°25' E 004°51'0 0.0
2015-Aug-31 01:33N 52°25' E 004°51'0 0.0
2015-Aug-31 00:33N 52°25' E 004°51'0 0.0
2015-Aug-30 23:33N 52°25' E 004°51'0 0.0
2015-Aug-30 22:33N 52°25' E 004°51'0 0.0
2015-Aug-30 21:33N 52°25' E 004°51'0 0.0
2015-Aug-30 20:33N 52°25' E 004°51'0 0.0
2015-Aug-30 19:33N 52°25' E 004°51'0 0.0
2015-Aug-30 18:33N 52°25' E 004°51'0 0.0
2015-Aug-30 17:33N 52°25' E 004°51'0 0.0
2015-Aug-30 16:33N 52°25' E 004°51'0 0.0
2015-Aug-30 15:33N 52°25' E 004°51'0 0.0
2015-Aug-30 14:33N 52°25' E 004°51'0 0.0
2015-Aug-30 13:33N 52°25' E 004°51'0 0.0
2015-Aug-30 12:33N 52°25' E 004°51'0 0.0
2015-Aug-30 11:33N 52°25' E 004°51'0 0.0
2015-Aug-30 10:33N 52°25' E 004°51'0 0.0
2015-Aug-30 09:33N 52°25' E 004°51'0 0.0
2015-Aug-30 08:33N 52°25' E 004°51'0 0.0
2015-Aug-30 07:33N 52°25' E 004°51'0 0.0
2015-Aug-30 06:33N 52°25' E 004°51'0 0.0
2015-Aug-30 05:33N 52°25' E 004°51'0 0.0
2015-Aug-30 04:33N 52°25' E 004°51'0 0.0
2015-Aug-30 03:33N 52°25' E 004°51'0 0.0
2015-Aug-30 02:33N 52°25' E 004°51'0 0.0
2015-Aug-30 01:33N 52°25' E 004°51'0 0.0
2015-Aug-30 00:33N 52°25' E 004°51'0 0.0
2015-Aug-29 23:33N 52°25' E 004°51'0 0.0
2015-Aug-29 22:33N 52°25' E 004°51'0 0.0
2015-Aug-29 21:33N 52°25' E 004°51'0 0.0
2015-Aug-29 20:33N 52°25' E 004°51'0 0.0
2015-Aug-29 19:33N 52°25' E 004°51'0 0.0
2015-Aug-29 18:33N 52°25' E 004°51'0 0.0
2015-Aug-29 17:33N 52°25' E 004°51'0 0.0
2015-Aug-29 16:33N 52°25' E 004°51'0 0.0
2015-Aug-29 15:33N 52°25' E 004°51'0 0.0
2015-Aug-29 14:33N 52°25' E 004°51'0 0.0
2015-Aug-29 13:33N 52°25' E 004°51'4 4.0
2015-Aug-29 12:34N 52°25' E 004°45'0 0.0
2015-Aug-29 11:33N 52°25' E 004°45'0 0.0
2015-Aug-29 10:33N 52°25' E 004°45'0 0.0
2015-Aug-29 09:33N 52°25' E 004°45'0 0.0
2015-Aug-29 08:33N 52°25' E 004°45'0 0.0
2015-Aug-29 07:33N 52°25' E 004°45'0 0.0
2015-Aug-29 06:33N 52°25' E 004°45'0 0.0
2015-Aug-29 05:33N 52°25' E 004°45'1 1.1
2015-Aug-29 04:33N 52°24' E 004°46'0 0.0
2015-Aug-29 03:33N 52°24' E 004°46'0 0.0
2015-Aug-29 02:33N 52°24' E 004°46'0 0.0
2015-Aug-29 01:33N 52°24' E 004°46'0 0.0
2015-Aug-29 00:33N 52°24' E 004°46'0 0.0
2015-Aug-28 23:33N 52°24' E 004°46'0 0.0
2015-Aug-28 22:33N 52°24' E 004°46'0 0.0
2015-Aug-28 21:33N 52°24' E 004°46'0 0.0
2015-Aug-28 20:33N 52°24' E 004°46'2 2.2
2015-Aug-28 19:34N 52°25' E 004°50'1 1.1
2015-Aug-28 18:33N 52°25' E 004°52'0 0.0
2015-Aug-28 17:34N 52°25' E 004°52'0 0.0
2015-Aug-28 16:34N 52°25' E 004°52'0 0.0
2015-Aug-28 15:34N 52°25' E 004°52'0 0.0
2015-Aug-28 14:34N 52°25' E 004°52'0 0.0
2015-Aug-28 13:34N 52°25' E 004°52'0 0.0
2015-Aug-28 12:34N 52°25' E 004°52'0 0.0
2015-Aug-28 11:34N 52°25' E 004°52'0 0.0
2015-Aug-28 10:34N 52°25' E 004°52'0 0.0
2015-Aug-28 09:34N 52°25' E 004°52'0 0.0
2015-Aug-28 08:34N 52°25' E 004°52'0 0.0
2015-Aug-28 07:34N 52°25' E 004°52'0 0.0
2015-Aug-28 06:34N 52°25' E 004°52'3 2.9
2015-Aug-28 05:33N 52°23' E 004°55'7 7.3
2015-Aug-28 04:34N 52°17' E 005°01'8 8.0
2015-Aug-28 03:33N 52°09' E 005°01'8 7.8
2015-Aug-28 02:34N 52°02' E 005°07'3 3.0
2015-Aug-28 01:33N 51°59' E 005°04'8 7.6
2015-Aug-28 00:34N 51°56' E 004°52'10 9.7
2015-Aug-27 23:33N 51°53' E 004°37'7 7.2
2015-Aug-27 22:34N 51°54' E 004°26'7 6.9
2015-Aug-27 21:34N 51°52' E 004°15'5 5.0
2015-Aug-27 20:32N 51°56' E 004°10'0 0.0
2015-Aug-27 19:32N 51°56' E 004°10'0 0.0
2015-Aug-27 18:32N 51°56' E 004°10'0 0.0
2015-Aug-27 17:32N 51°56' E 004°10'0 0.0
2015-Aug-27 16:32N 51°56' E 004°10'0 0.0
2015-Aug-27 15:32N 51°56' E 004°10'0 0.0
2015-Aug-27 14:32N 51°56' E 004°10'0 0.0
2015-Aug-27 13:32N 51°56' E 004°10'0 0.2
2015-Aug-27 12:29N 51°57' E 004°10'0 0.0
2015-Aug-27 11:32N 51°57' E 004°10'0 0.0
2015-Aug-27 10:32N 51°57' E 004°10'1 0.5
2015-Aug-27 09:33N 51°56' E 004°11'2 1.8
2015-Aug-27 08:32N 51°55' E 004°13'0 0.0
2015-Aug-27 07:32N 51°55' E 004°13'0 0.0
2015-Aug-27 06:29N 51°55' E 004°13'0 0.0
2015-Aug-27 05:33N 51°55' E 004°13'0 0.0
2015-Aug-27 04:33N 51°55' E 004°13'0 0.0
2015-Aug-27 03:33N 51°55' E 004°13'0 0.0
2015-Aug-27 02:33N 51°55' E 004°13'0 0.0
2015-Aug-27 01:33N 51°55' E 004°13'0 0.0
2015-Aug-27 00:33N 51°55' E 004°13'0 0.0
2015-Aug-26 23:34N 51°55' E 004°13'0 0.0
2015-Aug-26 22:33N 51°55' E 004°13'0 0.0
2015-Aug-26 21:33N 51°55' E 004°13'0 0.0
2015-Aug-26 20:33N 51°55' E 004°13'5 4.7
2015-Aug-26 19:33N 51°52' E 004°18'3 2.6
2015-Aug-26 18:32N 51°53' E 004°22'0 0.0
2015-Aug-26 17:32N 51°53' E 004°22'0 0.0
2015-Aug-26 16:26N 51°53' E 004°22'0 0.0
2015-Aug-26 15:32N 51°53' E 004°22'0 0.0
2015-Aug-26 14:20N 51°53' E 004°22'0 0.0
2015-Aug-26 13:32N 51°53' E 004°22'0 0.0
2015-Aug-26 12:32N 51°53' E 004°22'0 0.0
2015-Aug-26 11:32N 51°53' E 004°22'0 0.0
2015-Aug-26 10:26N 51°53' E 004°22'0 0.0
2015-Aug-26 09:14N 51°53' E 004°22'0 0.0
2015-Aug-26 08:32N 51°53' E 004°22'0 0.0
2015-Aug-26 06:32N 51°53' E 004°22'3 2.7
2015-Aug-26 05:32N 51°53' E 004°18'0 0.0
2015-Aug-26 04:29N 51°53' E 004°18'0 0.0
2015-Aug-26 03:32N 51°53' E 004°18'0 0.0
2015-Aug-26 02:20N 51°53' E 004°18'0 0.0
2015-Aug-26 01:32N 51°53' E 004°18'0 0.0
2015-Aug-26 00:33N 51°53' E 004°18'0 0.0
2015-Aug-25 23:33N 51°53' E 004°18'0 0.0
2015-Aug-25 22:33N 51°53' E 004°18'0 0.0
2015-Aug-25 21:30N 51°53' E 004°18'0 0.0
2015-Aug-25 20:33N 51°53' E 004°18'0 0.0
2015-Aug-25 19:33N 51°53' E 004°18'0 0.0
2015-Aug-25 18:30N 51°53' E 004°18'0 0.0
2015-Aug-25 17:33N 51°53' E 004°18'0 0.0
2015-Aug-25 16:33N 51°53' E 004°18'0 0.0
2015-Aug-25 15:27N 51°53' E 004°18'0 0.0
2015-Aug-25 14:33N 51°53' E 004°18'0 0.0
2015-Aug-25 13:34N 51°53' E 004°18'3 3.1
2015-Aug-25 12:34N 51°51' E 004°21'9 8.3
2015-Aug-25 11:25N 51°48' E 004°36'6 7.0
2015-Aug-25 10:33N 51°42' E 004°35'7 6.1
2015-Aug-25 09:28N 51°41' E 004°25'10 7.8
2015-Aug-25 08:11N 51°35' E 004°12'6 9.0
2015-Aug-25 07:33N 51°30' E 004°13'5 4.7
2015-Aug-25 06:33N 51°25' E 004°14'9 8.9
2015-Aug-25 05:33N 51°17' E 004°21'2 2.2
2015-Aug-25 04:33N 51°15' E 004°23'0 0.0
2015-Aug-25 03:33N 51°15' E 004°23'0 0.0
2015-Aug-25 02:33N 51°15' E 004°23'0 0.0
2015-Aug-25 01:33N 51°15' E 004°23'0 0.0
2015-Aug-25 00:33N 51°15' E 004°23'0 0.0
2015-Aug-24 23:33N 51°15' E 004°23'0 0.0
2015-Aug-24 22:33N 51°15' E 004°23'0 0.0
2015-Aug-24 21:33N 51°15' E 004°23'0 0.0
2015-Aug-24 20:33N 51°15' E 004°23'0 0.0
2015-Aug-24 19:33N 51°15' E 004°23'0 0.0
2015-Aug-24 18:33N 51°15' E 004°23'0 0.0
2015-Aug-24 17:33N 51°15' E 004°23'0 0.0
2015-Aug-24 16:33N 51°15' E 004°23'0 0.0
2015-Aug-24 15:33N 51°15' E 004°23'0 0.0
2015-Aug-24 14:33N 51°15' E 004°23'0 0.0
2015-Aug-24 13:33N 51°15' E 004°23'0 0.0
2015-Aug-24 12:33N 51°15' E 004°23'0 0.0
2015-Aug-24 11:33N 51°15' E 004°23'0 0.0
2015-Aug-24 10:30N 51°15' E 004°23'0 0.0
2015-Aug-24 09:33N 51°15' E 004°23'0 0.2
2015-Aug-24 08:32N 51°15' E 004°23'0 0.0
2015-Aug-24 07:32N 51°15' E 004°23'0 0.0
2015-Aug-24 06:32N 51°15' E 004°23'0 0.0
2015-Aug-24 05:32N 51°15' E 004°23'0 0.0
2015-Aug-24 04:26N 51°15' E 004°23'0 0.0
2015-Aug-24 03:32N 51°15' E 004°23'0 0.0
2015-Aug-24 02:32N 51°15' E 004°23'0 0.0
2015-Aug-24 01:32N 51°15' E 004°23'0 0.0
2015-Aug-24 00:32N 51°15' E 004°23'0 0.0
2015-Aug-23 23:29N 51°15' E 004°23'0 0.0
2015-Aug-23 22:32N 51°15' E 004°23'0 0.0
2015-Aug-23 21:29N 51°15' E 004°23'0 0.0
2015-Aug-23 20:29N 51°15' E 004°23'0 0.0
2015-Aug-23 19:32N 51°15' E 004°23'0 0.0
2015-Aug-23 18:32N 51°15' E 004°23'0 0.0
2015-Aug-23 17:32N 51°15' E 004°23'0 0.0
2015-Aug-23 16:26N 51°15' E 004°23'0 0.0
2015-Aug-23 15:32N 51°15' E 004°23'0 0.0
2015-Aug-23 14:32N 51°15' E 004°23'0 0.0
2015-Aug-23 13:32N 51°15' E 004°23'0 0.0
2015-Aug-23 12:32N 51°15' E 004°23'0 0.0
2015-Aug-23 11:32N 51°15' E 004°23'0 0.0
2015-Aug-23 10:32N 51°15' E 004°23'0 0.0
2015-Aug-23 09:26N 51°15' E 004°23'0 0.0
2015-Aug-23 08:32N 51°15' E 004°23'0 0.0
2015-Aug-23 07:32N 51°15' E 004°23'0 0.0
2015-Aug-23 06:32N 51°15' E 004°23'0 0.0
2015-Aug-23 05:33N 51°15' E 004°23'0 0.0
2015-Aug-23 04:34N 51°15' E 004°23'0 0.0
2015-Aug-23 03:33N 51°15' E 004°23'0 0.0
2015-Aug-23 02:33N 51°15' E 004°23'0 0.0
2015-Aug-23 01:33N 51°15' E 004°23'0 0.0
2015-Aug-23 00:34N 51°15' E 004°23'0 0.0
2015-Aug-22 23:33N 51°15' E 004°23'0 0.0
2015-Aug-22 22:33N 51°15' E 004°23'0 0.0
2015-Aug-22 21:33N 51°15' E 004°23'0 0.0
2015-Aug-22 20:33N 51°15' E 004°23'0 0.0
2015-Aug-22 19:33N 51°15' E 004°23'0 0.0
2015-Aug-22 18:33N 51°15' E 004°23'0 0.0
2015-Aug-22 17:33N 51°15' E 004°23'0 0.0
2015-Aug-22 16:33N 51°15' E 004°23'0 0.0
2015-Aug-22 15:33N 51°15' E 004°23'0 0.0
2015-Aug-22 14:33N 51°15' E 004°23'0 0.0
2015-Aug-22 13:33N 51°15' E 004°23'0 0.0
2015-Aug-22 12:33N 51°15' E 004°23'0 0.0
2015-Aug-22 11:33N 51°15' E 004°23'  
Track history (hours):
 
Tides and Currents Weather Stations Pressure Air Temp Water Temp Dewpoint Dewpoint Depression Visibility Wind Speed Wind Dir Waves Ship Positions

Rp Zug

Last reported at 2015-Sep-01 11:19 UTC. Time now 2015-Sep-01 12:16 UTC.
Position N 51°51' E 006°05'.

Length 110 m; draft 2 m.

Type: Tanker. MMSI: 269057351.

Date/timePositionNaut miles runAvg speedWind from/ knotsBaromVisibWave heightAir tempDewpointWater temp
2015-Sep-01 11:19N 51°51' E 006°05'3 1.5
2015-Sep-01 09:05N 51°53' E 006°01'8 5.1
2015-Sep-01 07:33N 51°53' E 005°48'7 6.8
2015-Sep-01 06:32N 51°54' E 005°37'6 6.1
2015-Sep-01 05:33N 51°54' E 005°27'6 6.4
2015-Sep-01 04:33N 51°58' E 005°19'7 7.1
2015-Sep-01 03:34N 52°01' E 005°09'9 8.8
2015-Sep-01 02:33N 52°09' E 005°01'9 8.7
2015-Sep-01 01:33N 52°17' E 005°01'7 6.9
2015-Sep-01 00:34N 52°23' E 004°55'3 2.8
2015-Aug-31 23:33N 52°25' E 004°51'0 0.0
2015-Aug-31 22:33N 52°25' E 004°51'0 0.0
2015-Aug-31 21:33N 52°25' E 004°51'0 0.0
2015-Aug-31 20:33N 52°25' E 004°51'0 0.0
2015-Aug-31 19:33N 52°25' E 004°51'0 0.0
2015-Aug-31 18:33N 52°25' E 004°51'0 0.0
2015-Aug-31 17:33N 52°25' E 004°51'0 0.0
2015-Aug-31 16:33N 52°25' E 004°51'0 0.0
2015-Aug-31 15:33N 52°25' E 004°51'0 0.0
2015-Aug-31 14:33N 52°25' E 004°51'0 0.0
2015-Aug-31 13:33N 52°25' E 004°51'0 0.0
2015-Aug-31 12:33N 52°25' E 004°51'0 0.0
2015-Aug-31 11:33N 52°25' E 004°51'1 1.3
2015-Aug-31 10:33N 52°25' E 004°50'3 2.8
2015-Aug-31 09:33N 52°25' E 004°45'0 0.0
2015-Aug-31 08:33N 52°25' E 004°45'0 0.0
2015-Aug-31 07:33N 52°25' E 004°45'1 1.3
2015-Aug-31 06:33N 52°26' E 004°47'3 2.7
2015-Aug-31 05:33N 52°25' E 004°51'0 0.0
2015-Aug-31 04:33N 52°25' E 004°51'0 0.0
2015-Aug-31 03:33N 52°25' E 004°51'0 0.0
2015-Aug-31 02:33N 52°25' E 004°51'0 0.0
2015-Aug-31 01:33N 52°25' E 004°51'0 0.0
2015-Aug-31 00:33N 52°25' E 004°51'0 0.0
2015-Aug-30 23:33N 52°25' E 004°51'0 0.0
2015-Aug-30 22:33N 52°25' E 004°51'0 0.0
2015-Aug-30 21:33N 52°25' E 004°51'0 0.0
2015-Aug-30 20:33N 52°25' E 004°51'0 0.0
2015-Aug-30 19:33N 52°25' E 004°51'0 0.0
2015-Aug-30 18:33N 52°25' E 004°51'0 0.0
2015-Aug-30 17:33N 52°25' E 004°51'0 0.0
2015-Aug-30 16:33N 52°25' E 004°51'0 0.0
2015-Aug-30 15:33N 52°25' E 004°51'0 0.0
2015-Aug-30 14:33N 52°25' E 004°51'0 0.0
2015-Aug-30 13:33N 52°25' E 004°51'0 0.0
2015-Aug-30 12:33N 52°25' E 004°51'0 0.0
2015-Aug-30 11:33N 52°25' E 004°51'0 0.0
2015-Aug-30 10:33N 52°25' E 004°51'0 0.0
2015-Aug-30 09:33N 52°25' E 004°51'0 0.0
2015-Aug-30 08:33N 52°25' E 004°51'0 0.0
2015-Aug-30 07:33N 52°25' E 004°51'0 0.0
2015-Aug-30 06:33N 52°25' E 004°51'0 0.0
2015-Aug-30 05:33N 52°25' E 004°51'0 0.0
2015-Aug-30 04:33N 52°25' E 004°51'0 0.0
2015-Aug-30 03:33N 52°25' E 004°51'0 0.0
2015-Aug-30 02:33N 52°25' E 004°51'0 0.0
2015-Aug-30 01:33N 52°25' E 004°51'0 0.0
2015-Aug-30 00:33N 52°25' E 004°51'0 0.0
2015-Aug-29 23:33N 52°25' E 004°51'0 0.0
2015-Aug-29 22:33N 52°25' E 004°51'0 0.0
2015-Aug-29 21:33N 52°25' E 004°51'0 0.0
2015-Aug-29 20:33N 52°25' E 004°51'0 0.0
2015-Aug-29 19:33N 52°25' E 004°51'0 0.0
2015-Aug-29 18:33N 52°25' E 004°51'0 0.0
2015-Aug-29 17:33N 52°25' E 004°51'0 0.0
2015-Aug-29 16:33N 52°25' E 004°51'0 0.0
2015-Aug-29 15:33N 52°25' E 004°51'0 0.0
2015-Aug-29 14:33N 52°25' E 004°51'0 0.0
2015-Aug-29 13:33N 52°25' E 004°51'4 4.0
2015-Aug-29 12:34N 52°25' E 004°45'0 0.0
2015-Aug-29 11:33N 52°25' E 004°45'0 0.0
2015-Aug-29 10:33N 52°25' E 004°45'0 0.0
2015-Aug-29 09:33N 52°25' E 004°45'0 0.0
2015-Aug-29 08:33N 52°25' E 004°45'0 0.0
2015-Aug-29 07:33N 52°25' E 004°45'0 0.0
2015-Aug-29 06:33N 52°25' E 004°45'0 0.0
2015-Aug-29 05:33N 52°25' E 004°45'1 1.1
2015-Aug-29 04:33N 52°24' E 004°46'0 0.0
2015-Aug-29 03:33N 52°24' E 004°46'0 0.0
2015-Aug-29 02:33N 52°24' E 004°46'0 0.0
2015-Aug-29 01:33N 52°24' E 004°46'0 0.0
2015-Aug-29 00:33N 52°24' E 004°46'0 0.0
2015-Aug-28 23:33N 52°24' E 004°46'0 0.0
2015-Aug-28 22:33N 52°24' E 004°46'0 0.0
2015-Aug-28 21:33N 52°24' E 004°46'0 0.0
2015-Aug-28 20:33N 52°24' E 004°46'2 2.2
2015-Aug-28 19:34N 52°25' E 004°50'1 1.1
2015-Aug-28 18:33N 52°25' E 004°52'0 0.0
2015-Aug-28 17:34N 52°25' E 004°52'0 0.0
2015-Aug-28 16:34N 52°25' E 004°52'0 0.0
2015-Aug-28 15:34N 52°25' E 004°52'0 0.0
2015-Aug-28 14:34N 52°25' E 004°52'0 0.0
2015-Aug-28 13:34N 52°25' E 004°52'0 0.0
2015-Aug-28 12:34N 52°25' E 004°52'0 0.0
2015-Aug-28 11:34N 52°25' E 004°52'0 0.0
2015-Aug-28 10:34N 52°25' E 004°52'0 0.0
2015-Aug-28 09:34N 52°25' E 004°52'0 0.0
2015-Aug-28 08:34N 52°25' E 004°52'0 0.0
2015-Aug-28 07:34N 52°25' E 004°52'0 0.0
2015-Aug-28 06:34N 52°25' E 004°52'3 2.9
2015-Aug-28 05:33N 52°23' E 004°55'7 7.3
2015-Aug-28 04:34N 52°17' E 005°01'8 8.0
2015-Aug-28 03:33N 52°09' E 005°01'8 7.8
2015-Aug-28 02:34N 52°02' E 005°07'3 3.0
2015-Aug-28 01:33N 51°59' E 005°04'8 7.6
2015-Aug-28 00:34N 51°56' E 004°52'10 9.7
2015-Aug-27 23:33N 51°53' E 004°37'7 7.2
2015-Aug-27 22:34N 51°54' E 004°26'7 6.9
2015-Aug-27 21:34N 51°52' E 004°15'5 5.0
2015-Aug-27 20:32N 51°56' E 004°10'0 0.0
2015-Aug-27 19:32N 51°56' E 004°10'0 0.0
2015-Aug-27 18:32N 51°56' E 004°10'0 0.0
2015-Aug-27 17:32N 51°56' E 004°10'0 0.0
2015-Aug-27 16:32N 51°56' E 004°10'0 0.0
2015-Aug-27 15:32N 51°56' E 004°10'0 0.0
2015-Aug-27 14:32N 51°56' E 004°10'0 0.0
2015-Aug-27 13:32N 51°56' E 004°10'0 0.2
2015-Aug-27 12:29N 51°57' E 004°10'0 0.0
2015-Aug-27 11:32N 51°57' E 004°10'0 0.0
2015-Aug-27 10:32N 51°57' E 004°10'1 0.5
2015-Aug-27 09:33N 51°56' E 004°11'2 1.8
2015-Aug-27 08:32N 51°55' E 004°13'0 0.0
2015-Aug-27 07:32N 51°55' E 004°13'0 0.0
2015-Aug-27 06:29N 51°55' E 004°13'0 0.0
2015-Aug-27 05:33N 51°55' E 004°13'0 0.0
2015-Aug-27 04:33N 51°55' E 004°13'0 0.0
2015-Aug-27 03:33N 51°55' E 004°13'0 0.0
2015-Aug-27 02:33N 51°55' E 004°13'0 0.0
2015-Aug-27 01:33N 51°55' E 004°13'0 0.0
2015-Aug-27 00:33N 51°55' E 004°13'0 0.0
2015-Aug-26 23:34N 51°55' E 004°13'0 0.0
2015-Aug-26 22:33N 51°55' E 004°13'0 0.0
2015-Aug-26 21:33N 51°55' E 004°13'0 0.0
2015-Aug-26 20:33N 51°55' E 004°13'5 4.7
2015-Aug-26 19:33N 51°52' E 004°18'3 2.6
2015-Aug-26 18:32N 51°53' E 004°22'0 0.0
2015-Aug-26 17:32N 51°53' E 004°22'0 0.0
2015-Aug-26 16:26N 51°53' E 004°22'0 0.0
2015-Aug-26 15:32N 51°53' E 004°22'0 0.0
2015-Aug-26 14:20N 51°53' E 004°22'0 0.0
2015-Aug-26 13:32N 51°53' E 004°22'0 0.0
2015-Aug-26 12:32N 51°53' E 004°22'0 0.0
2015-Aug-26 11:32N 51°53' E 004°22'0 0.0
2015-Aug-26 10:26N 51°53' E 004°22'0 0.0
2015-Aug-26 09:14N 51°53' E 004°22'0 0.0
2015-Aug-26 08:32N 51°53' E 004°22'0 0.0
2015-Aug-26 06:32N 51°53' E 004°22'3 2.7
2015-Aug-26 05:32N 51°53' E 004°18'0 0.0
2015-Aug-26 04:29N 51°53' E 004°18'0 0.0
2015-Aug-26 03:32N 51°53' E 004°18'0 0.0
2015-Aug-26 02:20N 51°53' E 004°18'0 0.0
2015-Aug-26 01:32N 51°53' E 004°18'0 0.0
2015-Aug-26 00:33N 51°53' E 004°18'0 0.0
2015-Aug-25 23:33N 51°53' E 004°18'0 0.0
2015-Aug-25 22:33N 51°53' E 004°18'0 0.0
2015-Aug-25 21:30N 51°53' E 004°18'0 0.0
2015-Aug-25 20:33N 51°53' E 004°18'0 0.0
2015-Aug-25 19:33N 51°53' E 004°18'0 0.0
2015-Aug-25 18:30N 51°53' E 004°18'0 0.0
2015-Aug-25 17:33N 51°53' E 004°18'0 0.0
2015-Aug-25 16:33N 51°53' E 004°18'0 0.0
2015-Aug-25 15:27N 51°53' E 004°18'0 0.0
2015-Aug-25 14:33N 51°53' E 004°18'0 0.0
2015-Aug-25 13:34N 51°53' E 004°18'3 3.1
2015-Aug-25 12:34N 51°51' E 004°21'9 8.3
2015-Aug-25 11:25N 51°48' E 004°36'6 7.0
2015-Aug-25 10:33N 51°42' E 004°35'7 6.1
2015-Aug-25 09:28N 51°41' E 004°25'10 7.8
2015-Aug-25 08:11N 51°35' E 004°12'6 9.0
2015-Aug-25 07:33N 51°30' E 004°13'5 4.7
2015-Aug-25 06:33N 51°25' E 004°14'9 8.9
2015-Aug-25 05:33N 51°17' E 004°21'2 2.2
2015-Aug-25 04:33N 51°15' E 004°23'0 0.0
2015-Aug-25 03:33N 51°15' E 004°23'0 0.0
2015-Aug-25 02:33N 51°15' E 004°23'0 0.0
2015-Aug-25 01:33N 51°15' E 004°23'0 0.0
2015-Aug-25 00:33N 51°15' E 004°23'0 0.0
2015-Aug-24 23:33N 51°15' E 004°23'0 0.0
2015-Aug-24 22:33N 51°15' E 004°23'0 0.0
2015-Aug-24 21:33N 51°15' E 004°23'0 0.0
2015-Aug-24 20:33N 51°15' E 004°23'0 0.0
2015-Aug-24 19:33N 51°15' E 004°23'0 0.0
2015-Aug-24 18:33N 51°15' E 004°23'0 0.0
2015-Aug-24 17:33N 51°15' E 004°23'0 0.0
2015-Aug-24 16:33N 51°15' E 004°23'0 0.0
2015-Aug-24 15:33N 51°15' E 004°23'0 0.0
2015-Aug-24 14:33N 51°15' E 004°23'0 0.0
2015-Aug-24 13:33N 51°15' E 004°23'0 0.0
2015-Aug-24 12:33N 51°15' E 004°23'0 0.0
2015-Aug-24 11:33N 51°15' E 004°23'0 0.0
2015-Aug-24 10:30N 51°15' E 004°23'0 0.0
2015-Aug-24 09:33N 51°15' E 004°23'0 0.2
2015-Aug-24 08:32N 51°15' E 004°23'0 0.0
2015-Aug-24 07:32N 51°15' E 004°23'0 0.0
2015-Aug-24 06:32N 51°15' E 004°23'0 0.0
2015-Aug-24 05:32N 51°15' E 004°23'0 0.0
2015-Aug-24 04:26N 51°15' E 004°23'0 0.0
2015-Aug-24 03:32N 51°15' E 004°23'0 0.0
2015-Aug-24 02:32N 51°15' E 004°23'0 0.0
2015-Aug-24 01:32N 51°15' E 004°23'0 0.0
2015-Aug-24 00:32N 51°15' E 004°23'0 0.0
2015-Aug-23 23:29N 51°15' E 004°23'0 0.0
2015-Aug-23 22:32N 51°15' E 004°23'0 0.0
2015-Aug-23 21:29N 51°15' E 004°23'0 0.0
2015-Aug-23 20:29N 51°15' E 004°23'0 0.0
2015-Aug-23 19:32N 51°15' E 004°23'0 0.0
2015-Aug-23 18:32N 51°15' E 004°23'0 0.0
2015-Aug-23 17:32N 51°15' E 004°23'0 0.0
2015-Aug-23 16:26N 51°15' E 004°23'0 0.0
2015-Aug-23 15:32N 51°15' E 004°23'0 0.0
2015-Aug-23 14:32N 51°15' E 004°23'0 0.0
2015-Aug-23 13:32N 51°15' E 004°23'0 0.0
2015-Aug-23 12:32N 51°15' E 004°23'0 0.0
2015-Aug-23 11:32N 51°15' E 004°23'0 0.0
2015-Aug-23 10:32N 51°15' E 004°23'0 0.0
2015-Aug-23 09:26N 51°15' E 004°23'0 0.0
2015-Aug-23 08:32N 51°15' E 004°23'0 0.0
2015-Aug-23 07:32N 51°15' E 004°23'0 0.0
2015-Aug-23 06:32N 51°15' E 004°23'0 0.0
2015-Aug-23 05:33N 51°15' E 004°23'0 0.0
2015-Aug-23 04:34N 51°15' E 004°23'0 0.0
2015-Aug-23 03:33N 51°15' E 004°23'0 0.0
2015-Aug-23 02:33N 51°15' E 004°23'0 0.0
2015-Aug-23 01:33N 51°15' E 004°23'0 0.0
2015-Aug-23 00:34N 51°15' E 004°23'0 0.0
2015-Aug-22 23:33N 51°15' E 004°23'0 0.0
2015-Aug-22 22:33N 51°15' E 004°23'0 0.0
2015-Aug-22 21:33N 51°15' E 004°23'0 0.0
2015-Aug-22 20:33N 51°15' E 004°23'0 0.0
2015-Aug-22 19:33N 51°15' E 004°23'0 0.0
2015-Aug-22 18:33N 51°15' E 004°23'0 0.0
2015-Aug-22 17:33N 51°15' E 004°23'0 0.0
2015-Aug-22 16:33N 51°15' E 004°23'0 0.0
2015-Aug-22 15:33N 51°15' E 004°23'0 0.0
2015-Aug-22 14:33N 51°15' E 004°23'0 0.0
2015-Aug-22 13:33N 51°15' E 004°23'0 0.0
2015-Aug-22 12:33N 51°15' E 004°23'0 0.0
2015-Aug-22 11:33N 51°15' E 004°23'  

Dump ship's entire track history